Time;durP1;ratioP1;P1;durP2;ratioP2;P2;SDS_P1;SDS_P2;PMS_P1;PMS_P2;Temp;Humidity;BMP_temperature;BMP_pressure;BME280_temperature;BME280_humidity;BME280_pressure;Samples;Min_cycle;Max_cycle;Signal;HPM_P1;HPM_P2
2023/01/25 00:01:37;;;;;;;94.63;36.20;;;;;;;1.96;100.00;100298.72;4970330;28;20181;-63
2023/01/25 00:04:03;;;;;;;93.87;35.43;;;;;;;2.05;100.00;100328.59;4970684;28;20130;-62
2023/01/25 00:06:28;;;;;;;95.10;36.13;;;;;;;2.08;100.00;100326.22;4970379;28;20035;-62
2023/01/25 00:08:54;;;;;;;95.23;36.10;;;;;;;2.09;100.00;100325.41;4971255;28;20393;-61
2023/01/25 00:11:20;;;;;;;95.57;36.40;;;;;;;2.05;100.00;100329.47;4969246;28;20043;-61
2023/01/25 00:13:45;;;;;;;95.17;36.07;;;;;;;1.98;100.00;100322.44;4969591;28;20053;-61
2023/01/25 00:16:11;;;;;;;94.50;36.20;;;;;;;2.02;100.00;100323.41;4968905;28;20050;-61
2023/01/25 00:18:37;;;;;;;93.77;35.43;;;;;;;1.99;100.00;100330.88;4967806;28;20085;-62
2023/01/25 00:21:17;;;;;;;95.03;35.77;;;;;;;1.94;100.00;100328.16;4970186;28;20141;-62
2023/01/25 00:23:43;;;;;;;94.57;35.83;;;;;;;1.83;100.00;100302.41;4970147;28;20043;-61
2023/01/25 00:26:09;;;;;;;95.00;36.23;;;;;;;2.01;100.00;100325.06;4967457;28;20050;-62
2023/01/25 00:28:35;;;;;;;95.73;36.90;;;;;;;1.98;100.00;100329.16;4967550;28;20046;-62
2023/01/25 00:31:02;;;;;;;94.73;36.10;;;;;;;1.79;100.00;100298.03;4969900;28;20110;-62
2023/01/25 00:33:39;;;;;;;94.87;36.17;;;;;;;1.94;100.00;100315.50;4970020;28;20050;-62
2023/01/25 00:36:26;;;;;;;93.77;35.27;;;;;;;1.99;100.00;100328.34;4970584;28;20034;-63
2023/01/25 00:38:53;;;;;;;94.77;36.57;;;;;;;1.83;100.00;100301.53;4969866;28;20042;-64
2023/01/25 00:41:19;;;;;;;94.80;36.10;;;;;;;1.99;100.00;100334.28;4972281;28;20046;-60
2023/01/25 00:43:45;;;;;;;95.10;35.90;;;;;;;1.96;100.00;100331.59;4971686;28;20042;-61
2023/01/25 00:46:15;;;;;;;95.43;36.57;;;;;;;2.03;100.00;100325.16;4971218;28;20054;-60
2023/01/25 00:48:41;;;;;;;94.93;36.07;;;;;;;1.86;100.00;100313.47;4970501;28;20054;-61
2023/01/25 00:51:07;;;;;;;95.63;36.47;;;;;;;1.99;100.00;100343.53;4986172;28;20046;-61
2023/01/25 00:53:33;;;;;;;94.10;35.43;;;;;;;2.01;100.00;100346.97;4971360;28;20465;-61
2023/01/25 00:55:59;;;;;;;95.83;36.50;;;;;;;1.89;100.00;100323.69;4969880;28;20035;-61
2023/01/25 00:58:24;;;;;;;95.73;36.70;;;;;;;1.83;100.00;100312.53;4969951;28;20117;-61
2023/01/25 01:00:54;;;;;;;94.60;35.73;;;;;;;2.00;100.00;100345.25;4970092;28;20585;-61
2023/01/25 01:03:20;;;;;;;94.93;35.93;;;;;;;2.03;100.00;100350.44;4969512;28;20561;-61
2023/01/25 01:05:46;;;;;;;93.70;35.63;;;;;;;2.08;100.00;100349.00;4985725;28;20034;-62
2023/01/25 01:08:13;;;;;;;94.87;36.20;;;;;;;1.97;100.00;100346.00;4969915;28;20520;-61
2023/01/25 01:10:39;;;;;;;95.67;36.43;;;;;;;2.04;100.00;100345.44;4983940;28;20134;-62
2023/01/25 01:13:06;;;;;;;95.53;36.33;;;;;;;1.99;100.00;100341.00;4971650;28;20061;-61
2023/01/25 01:15:35;;;;;;;95.13;36.20;;;;;;;1.80;100.00;100325.03;4985321;28;20161;-61
2023/01/25 01:18:01;;;;;;;94.27;36.03;;;;;;;2.06;100.00;100350.56;4980419;28;20038;-61
2023/01/25 01:20:27;;;;;;;95.53;36.33;;;;;;;1.74;100.00;100321.41;4967363;28;20602;-61
2023/01/25 01:22:56;;;;;;;95.50;36.10;;;;;;;1.85;100.00;100325.25;4969056;28;20512;-61
2023/01/25 01:25:22;;;;;;;96.07;36.60;;;;;;;1.79;100.00;100341.00;4970331;28;20136;-60
2023/01/25 01:27:48;;;;;;;95.63;36.20;;;;;;;1.75;100.00;100326.50;4967554;28;20042;-62
2023/01/25 01:30:14;;;;;;;93.90;35.57;;;;;;;1.91;100.00;100349.94;4974390;28;20061;-62
2023/01/25 01:32:40;;;;;;;95.03;36.03;;;;;;;1.73;100.00;100312.94;4974981;28;20461;-62
2023/01/25 01:35:07;;;;;;;93.50;35.47;;;;;;;1.94;100.00;100343.34;4987354;28;20107;-62
2023/01/25 01:37:32;;;;;;;95.60;36.40;;;;;;;1.73;100.00;100312.06;4972149;28;20057;-62
2023/01/25 01:39:58;;;;;;;94.83;35.90;;;;;;;1.92;100.00;100342.38;4975314;28;20699;-61
2023/01/25 01:42:24;;;;;;;95.20;36.10;;;;;;;1.88;100.00;100340.53;4973598;28;20544;-62
2023/01/25 01:44:52;;;;;;;95.47;36.57;;;;;;;1.87;100.00;100327.84;4979737;28;20123;-62
2023/01/25 01:47:27;;;;;;;95.40;36.07;;;;;;;1.81;100.00;100334.34;4971217;28;20047;-61
2023/01/25 01:50:22;;;;;;;95.47;36.23;;;;;;;1.91;100.00;100340.66;4988661;28;20046;-61
2023/01/25 01:52:49;;;;;;;94.80;36.20;;;;;;;1.83;100.00;100337.81;4973354;28;20133;-62
2023/01/25 01:55:21;;;;;;;95.40;36.60;;;;;;;1.87;100.00;100325.31;4971955;28;20042;-61
2023/01/25 01:57:51;;;;;;;95.60;36.17;;;;;;;1.83;100.00;100304.94;4987660;28;20107;-62
2023/01/25 02:00:22;;;;;;;95.60;36.30;;;;;;;1.74;100.00;100302.00;4975900;28;20065;-62
2023/01/25 02:02:50;;;;;;;94.90;36.17;;;;;;;1.87;100.00;100307.63;4986354;28;20117;-62
2023/01/25 02:05:46;;;;;;;94.33;35.83;;;;;;;1.67;100.00;100278.94;4972036;28;20490;-62
2023/01/25 02:08:14;;;;;;;94.57;36.23;;;;;;;1.84;100.00;100326.91;4987206;28;20058;-61
2023/01/25 02:10:40;;;;;;;95.07;35.73;;;;;;;1.80;100.00;100321.66;4987925;28;20042;-62
2023/01/25 02:13:07;;;;;;;96.63;36.77;;;;;;;1.76;100.00;100323.19;4977112;28;20375;-63
2023/01/25 02:15:39;;;;;;;96.20;36.40;;;;;;;1.82;100.00;100315.00;4979574;28;20073;-62
2023/01/25 02:18:05;;;;;;;96.57;36.50;;;;;;;1.75;100.00;100330.69;4972247;28;20077;-62
2023/01/25 02:20:50;;;;;;;96.53;36.50;;;;;;;1.65;100.00;100296.59;4970904;28;20047;-62
2023/01/25 02:23:49;;;;;;;97.40;36.67;;;;;;;1.77;100.00;100319.88;4970150;28;20078;-62
2023/01/25 02:26:18;;;;;;;97.73;36.70;;;;;;;1.55;100.00;100301.16;4974058;28;20042;-62
2023/01/25 02:28:53;;;;;;;97.90;36.63;;;;;;;1.76;100.00;100320.66;4970381;28;20477;-62
2023/01/25 02:31:22;;;;;;;98.13;37.17;;;;;;;1.67;100.00;100309.28;4970002;28;20066;-62
2023/01/25 02:33:48;;;;;;;98.03;36.97;;;;;;;1.76;100.00;100317.25;4970572;28;20043;-62
2023/01/25 02:36:24;;;;;;;97.33;36.50;;;;;;;1.68;100.00;100319.47;4987259;28;20042;-62
2023/01/25 02:38:55;;;;;;;95.10;35.63;;;;;;;1.78;100.00;100316.50;4972311;28;20050;-62
2023/01/25 02:41:35;;;;;;;96.73;36.53;;;;;;;1.72;100.00;100318.78;4984950;28;20042;-61
2023/01/25 02:44:04;;;;;;;96.73;37.00;;;;;;;1.60;100.00;100293.00;4983909;28;20662;-62
2023/01/25 02:46:35;;;;;;;96.93;36.77;;;;;;;1.69;100.00;100300.97;4953981;28;20504;-66
2023/01/25 02:49:05;;;;;;;96.60;36.33;;;;;;;1.53;100.00;100288.44;4986582;28;20047;-62
2023/01/25 02:51:33;;;;;;;96.33;36.30;;;;;;;1.71;100.00;100304.41;4970829;28;20042;-62
2023/01/25 02:54:00;;;;;;;96.73;37.03;;;;;;;1.66;100.00;100298.28;4969496;28;20498;-61
2023/01/25 02:56:27;;;;;;;94.90;36.40;;;;;;;1.68;100.00;100301.75;4986778;28;20042;-62
2023/01/25 02:58:53;;;;;;;96.00;36.70;;;;;;;1.63;100.00;100290.59;4985122;28;20051;-61
2023/01/25 03:01:19;;;;;;;94.87;35.90;;;;;;;1.53;100.00;100264.88;4973277;28;20098;-61
2023/01/25 03:03:45;;;;;;;94.67;35.73;;;;;;;1.47;100.00;100260.41;4979076;28;20043;-61
2023/01/25 03:06:12;;;;;;;95.07;36.03;;;;;;;1.57;100.00;100280.19;4986514;28;20100;-63
2023/01/25 03:08:38;;;;;;;95.17;36.40;;;;;;;1.59;100.00;100265.97;4977841;28;20050;-61
2023/01/25 03:11:05;;;;;;;95.63;36.50;;;;;;;1.67;100.00;100278.94;4979318;28;20542;-61
2023/01/25 03:13:33;;;;;;;95.47;36.20;;;;;;;1.50;100.00;100242.84;4972760;28;20042;-61
2023/01/25 03:16:01;;;;;;;95.90;36.47;;;;;;;1.48;100.00;100241.94;4987128;28;20034;-61
2023/01/25 03:18:27;;;;;;;96.23;36.90;;;;;;;1.57;100.00;100266.72;4968599;28;20054;-61
2023/01/25 03:20:53;;;;;;;94.97;35.93;;;;;;;1.58;100.00;100264.25;4986330;28;20482;-60
2023/01/25 03:23:18;;;;;;;95.63;36.37;;;;;;;1.56;100.00;100265.84;4974114;28;20047;-62
2023/01/25 03:25:44;;;;;;;95.07;36.00;;;;;;;1.64;100.00;100258.59;4973082;28;20050;-62
2023/01/25 03:28:14;;;;;;;95.20;36.20;;;;;;;1.60;100.00;100257.59;4987525;28;20054;-61
2023/01/25 03:30:40;;;;;;;95.53;36.47;;;;;;;1.58;100.00;100259.19;4979421;28;20050;-61
2023/01/25 03:33:07;;;;;;;93.87;35.63;;;;;;;1.63;100.00;100252.66;4972756;28;20046;-61
2023/01/25 03:35:32;;;;;;;93.70;36.07;;;;;;;1.64;100.00;100244.31;4989098;28;20148;-62
2023/01/25 03:37:58;;;;;;;93.83;35.63;;;;;;;1.56;100.00;100244.78;4987021;28;20589;-62
2023/01/25 03:40:24;;;;;;;94.20;35.80;;;;;;;1.49;100.00;100217.50;4975017;28;20133;-61
2023/01/25 03:42:52;;;;;;;94.37;35.90;;;;;;;1.63;100.00;100242.56;4972618;28;20034;-62
2023/01/25 03:45:18;;;;;;;93.80;35.93;;;;;;;1.65;100.00;100240.13;4988071;28;20647;-61
2023/01/25 03:47:43;;;;;;;94.70;36.10;;;;;;;1.66;100.00;100231.69;4986311;28;20088;-61
2023/01/25 03:50:10;;;;;;;95.50;36.17;;;;;;;1.65;100.00;100225.81;4988520;28;20057;-62
2023/01/25 03:52:40;;;;;;;95.10;36.67;;;;;;;1.60;100.00;100224.75;4971014;28;20043;-60
2023/01/25 03:55:07;;;;;;;95.07;36.83;;;;;;;1.56;100.00;100216.97;4970578;28;20264;-62
2023/01/25 03:57:37;;;;;;;94.87;36.03;;;;;;;1.67;100.00;100214.09;4985198;28;20057;-61
2023/01/25 04:00:04;;;;;;;94.70;36.00;;;;;;;1.64;100.00;100218.16;4989483;28;20478;-65
2023/01/25 04:02:40;;;;;;;95.57;36.67;;;;;;;1.59;100.00;100207.84;4974040;28;20121;-62
2023/01/25 04:05:08;;;;;;;94.13;35.73;;;;;;;1.64;100.00;100218.16;4987739;28;20053;-61
2023/01/25 04:07:34;;;;;;;93.90;35.67;;;;;;;1.61;100.00;100211.28;4972199;28;20486;-60
2023/01/25 04:10:04;;;;;;;93.37;35.50;;;;;;;1.64;100.00;100201.34;4974614;28;20136;-61
2023/01/25 04:12:29;;;;;;;94.60;36.53;;;;;;;1.65;100.00;100208.13;4984750;28;20042;-60
2023/01/25 04:14:55;;;;;;;93.27;35.90;;;;;;;1.66;100.00;100208.94;4971809;28;20042;-60
2023/01/25 04:17:22;;;;;;;93.87;35.87;;;;;;;1.66;100.00;100206.44;4984892;28;20046;-61
2023/01/25 04:20:09;;;;;;;94.07;36.07;;;;;;;1.58;100.00;100211.16;4971062;28;20051;-60
2023/01/25 04:22:39;;;;;;;92.80;35.73;;;;;;;1.46;100.00;100187.06;4986486;28;20161;-61
2023/01/25 04:25:05;;;;;;;93.00;35.97;;;;;;;1.65;100.00;100212.31;4978984;28;20101;-61
2023/01/25 04:27:31;;;;;;;92.67;35.70;;;;;;;1.44;100.00;100176.03;4971394;28;20684;-61
2023/01/25 04:30:07;;;;;;;93.63;36.07;;;;;;;1.60;100.00;100212.13;4972524;28;20133;-61
2023/01/25 04:32:35;;;;;;;92.60;35.23;;;;;;;1.54;100.00;100216.91;4985529;28;20516;-61
2023/01/25 04:35:03;;;;;;;92.70;35.33;;;;;;;1.61;100.00;100208.75;4986139;28;20074;-60
2023/01/25 04:37:30;;;;;;;94.20;36.30;;;;;;;1.59;100.00;100210.38;4971820;28;20031;-62
2023/01/25 04:39:57;;;;;;;93.13;35.80;;;;;;;1.59;100.00;100215.44;4969803;28;20515;-63
2023/01/25 04:42:24;;;;;;;93.23;35.63;;;;;;;1.59;100.00;100220.50;4971378;28;20049;-61
2023/01/25 04:44:53;;;;;;;93.93;35.73;;;;;;;1.73;100.00;100221.94;4971911;28;20511;-61
2023/01/25 04:47:19;;;;;;;94.70;36.27;;;;;;;1.70;100.00;100224.31;4970736;28;20057;-61
2023/01/25 04:49:45;;;;;;;94.00;35.97;;;;;;;1.51;100.00;100190.63;4971330;28;20555;-61
2023/01/25 04:52:13;;;;;;;93.63;35.90;;;;;;;1.65;100.00;100203.06;4971182;28;20519;-61
2023/01/25 04:54:38;;;;;;;93.47;36.00;;;;;;;1.67;100.00;100208.16;4984895;28;20484;-60
2023/01/25 04:57:04;;;;;;;92.93;35.33;;;;;;;1.64;100.00;100219.03;4986471;28;20093;-60
2023/01/25 04:59:30;;;;;;;94.27;35.97;;;;;;;1.60;100.00;100202.00;4970093;28;20043;-60
2023/01/25 05:01:56;;;;;;;93.30;35.87;;;;;;;1.69;100.00;100209.97;4967347;28;20601;-60
2023/01/25 05:04:21;;;;;;;94.87;36.47;;;;;;;1.67;100.00;100211.56;4983382;28;20039;-62
2023/01/25 05:06:49;;;;;;;93.73;35.60;;;;;;;1.63;100.00;100193.69;4985850;28;20035;-61
2023/01/25 05:09:16;;;;;;;95.10;36.03;;;;;;;1.67;100.00;100200.59;4973169;28;20313;-61
2023/01/25 05:11:43;;;;;;;94.43;36.20;;;;;;;1.70;100.00;100205.75;4967523;28;20435;-61
2023/01/25 05:14:24;;;;;;;93.37;36.00;;;;;;;1.75;100.00;100205.16;4985141;28;20043;-62
2023/01/25 05:16:50;;;;;;;91.60;35.73;;;;;;;1.81;100.00;100199.50;4972863;28;20387;-61
2023/01/25 05:19:15;;;;;;;93.50;36.07;;;;;;;1.77;100.00;100201.03;4970015;28;20494;-60
2023/01/25 05:21:59;;;;;;;94.00;35.73;;;;;;;1.75;100.00;100201.75;4984382;28;20051;-61
2023/01/25 05:24:40;;;;;;;94.97;36.00;;;;;;;1.59;100.00;100169.94;4985131;28;20121;-62
2023/01/25 05:27:08;;;;;;;95.70;36.40;;;;;;;1.77;100.00;100200.16;4985421;28;20035;-62
2023/01/25 05:29:55;;;;;;;96.20;36.73;;;;;;;1.76;100.00;100198.44;4968704;28;20049;-62
2023/01/25 05:32:29;;;;;;;94.90;36.10;;;;;;;1.67;100.00;100181.22;4965827;28;20061;-62
2023/01/25 05:34:54;;;;;;;96.07;36.67;;;;;;;1.79;100.00;100194.38;4985878;28;20043;-62
2023/01/25 05:37:21;;;;;;;96.07;36.90;;;;;;;1.74;100.00;100200.88;4970697;28;20073;-61
2023/01/25 05:39:53;;;;;;;96.30;36.60;;;;;;;1.80;100.00;100205.34;4985579;28;20512;-60
2023/01/25 05:42:19;;;;;;;96.90;36.57;;;;;;;1.79;100.00;100204.47;4983954;28;20047;-61
2023/01/25 05:44:45;;;;;;;96.43;36.30;;;;;;;1.75;100.00;100207.69;4978328;28;20070;-62
2023/01/25 05:47:14;;;;;;;95.63;36.43;;;;;;;1.73;100.00;100201.72;4966994;28;20062;-62
2023/01/25 05:49:40;;;;;;;96.47;36.27;;;;;;;1.48;100.00;100176.22;4969322;28;20053;-60
2023/01/25 05:52:15;;;;;;;95.60;36.23;;;;;;;1.65;100.00;100200.53;4970546;28;20046;-63
2023/01/25 05:54:42;;;;;;;95.57;35.93;;;;;;;1.70;100.00;100201.56;4984347;28;20035;-60
2023/01/25 05:57:09;;;;;;;95.67;36.03;;;;;;;1.64;100.00;100200.47;4970861;28;20035;-60
2023/01/25 05:59:35;;;;;;;96.53;36.83;;;;;;;1.57;100.00;100185.84;4969711;28;20621;-61
2023/01/25 06:02:03;;;;;;;95.33;36.03;;;;;;;1.66;100.00;100208.94;4965249;28;20054;-60
2023/01/25 06:04:29;;;;;;;95.60;36.13;;;;;;;1.62;100.00;100205.44;4969873;28;20054;-61
2023/01/25 06:06:55;;;;;;;96.13;36.90;;;;;;;1.70;100.00;100210.81;4951579;28;20527;-61
2023/01/25 06:09:22;;;;;;;95.17;36.43;;;;;;;1.47;100.00;100178.69;4980383;28;20596;-60
2023/01/25 06:11:49;;;;;;;96.30;36.83;;;;;;;1.52;100.00;100178.09;4985039;28;20050;-59
2023/01/25 06:14:15;;;;;;;96.23;36.80;;;;;;;1.68;100.00;100198.13;4986675;28;20038;-57
2023/01/25 06:16:41;;;;;;;96.07;36.50;;;;;;;1.65;100.00;100198.00;4988989;28;20054;-62
2023/01/25 06:19:45;;;;;;;95.77;36.53;;;;;;;1.74;100.00;100197.53;4934530;29;20131;-59
2023/01/25 06:22:21;;;;;;;95.97;36.30;;;;;;;1.56;100.00;100187.50;4934870;29;20075;-60
2023/01/25 06:24:46;;;;;;;95.37;36.17;;;;;;;1.77;100.00;100208.63;4936058;29;20055;-60
2023/01/25 06:27:12;;;;;;;95.97;36.23;;;;;;;1.76;100.00;100217.00;4934804;28;20052;-59
2023/01/25 06:29:37;;;;;;;95.63;36.33;;;;;;;1.67;100.00;100201.44;4932969;28;20415;-59
2023/01/25 06:32:03;;;;;;;97.30;37.00;;;;;;;1.70;100.00;100215.88;4931491;29;20173;-58
2023/01/25 06:34:29;;;;;;;97.00;36.47;;;;;;;1.57;100.00;100194.28;4932814;29;20059;-58
2023/01/25 06:36:55;;;;;;;96.67;36.50;;;;;;;1.57;100.00;100199.31;4923017;28;20078;-58
2023/01/25 06:39:20;;;;;;;96.67;36.40;;;;;;;1.57;100.00;100211.13;4935848;28;20122;-59
2023/01/25 06:41:46;;;;;;;96.00;35.93;;;;;;;1.54;100.00;100194.16;4933422;28;20047;-59
2023/01/25 06:44:12;;;;;;;96.67;36.70;;;;;;;1.64;100.00;100216.50;4933801;28;20605;-58
2023/01/25 06:46:37;;;;;;;96.97;36.87;;;;;;;1.65;100.00;100217.38;4933508;28;20503;-59
2023/01/25 06:49:03;;;;;;;95.00;35.47;;;;;;;1.54;100.00;100196.69;4935102;28;20676;-58
2023/01/25 06:51:29;;;;;;;96.47;36.23;;;;;;;1.71;100.00;100221.00;4965397;28;20058;-59
2023/01/25 06:53:54;;;;;;;96.50;36.67;;;;;;;1.73;100.00;100223.59;4971525;28;20049;-59
2023/01/25 06:56:21;;;;;;;96.30;36.10;;;;;;;1.58;100.00;100188.44;4971080;28;20061;-59
2023/01/25 06:58:48;;;;;;;96.47;36.10;;;;;;;1.76;100.00;100218.66;4972053;28;20073;-58
2023/01/25 07:01:20;;;;;;;97.47;37.23;;;;;;;1.71;100.00;100213.41;4970455;28;20042;-60
2023/01/25 07:03:50;;;;;;;97.03;36.80;;;;;;;1.69;100.00;100216.69;4972072;28;20066;-57
2023/01/25 07:06:17;;;;;;;96.60;36.53;;;;;;;1.70;100.00;100219.25;4972160;28;20038;-58
2023/01/25 07:08:43;;;;;;;96.37;36.23;;;;;;;1.66;100.00;100206.44;4971471;28;20050;-59
2023/01/25 07:11:12;;;;;;;97.03;37.27;;;;;;;1.74;100.00;100189.94;4972134;28;20053;-57
2023/01/25 07:13:44;;;;;;;94.97;35.77;;;;;;;1.82;100.00;100213.88;4972172;28;20149;-58
2023/01/25 07:16:13;;;;;;;96.80;36.77;;;;;;;1.83;100.00;100210.50;4972111;28;20057;-59
2023/01/25 07:18:39;;;;;;;95.97;36.13;;;;;;;1.78;100.00;100196.84;4970853;28;20161;-58
2023/01/25 07:21:07;;;;;;;98.73;37.83;;;;;;;1.93;100.00;100211.75;4971639;28;20066;-59
2023/01/25 07:23:34;;;;;;;99.70;38.87;;;;;;;1.85;100.00;100203.88;4971412;28;20047;-59
2023/01/25 07:26:00;;;;;;;99.90;38.33;;;;;;;1.91;100.00;100203.28;4970119;28;20065;-58
2023/01/25 07:28:26;;;;;;;99.10;37.73;;;;;;;1.78;100.00;100199.38;4970442;28;20059;-59
2023/01/25 07:30:52;;;;;;;98.00;37.40;;;;;;;1.83;100.00;100200.41;4971516;28;20051;-56
2023/01/25 07:33:18;;;;;;;98.13;37.23;;;;;;;1.79;100.00;100196.03;4970042;28;20054;-53
2023/01/25 07:35:43;;;;;;;98.93;37.30;;;;;;;1.84;100.00;100192.91;4970720;28;20042;-59
2023/01/25 07:38:09;;;;;;;98.77;37.60;;;;;;;1.84;100.00;100195.41;4970742;28;20470;-58
2023/01/25 07:40:35;;;;;;;98.27;37.27;;;;;;;1.93;100.00;100189.00;4970756;28;20047;-58
2023/01/25 07:43:00;;;;;;;98.50;37.20;;;;;;;1.89;100.00;100190.56;4971721;28;20057;-59
2023/01/25 07:45:31;;;;;;;99.37;38.27;;;;;;;1.99;100.00;100194.31;4984161;28;20172;-59
2023/01/25 07:47:57;;;;;;;97.33;36.67;;;;;;;1.92;100.00;100188.13;4969889;28;20051;-60
2023/01/25 07:50:24;;;;;;;98.23;37.40;;;;;;;1.92;100.00;100195.72;4985178;28;20065;-60
2023/01/25 07:52:50;;;;;;;98.37;37.40;;;;;;;1.95;100.00;100202.59;4983499;28;20608;-60
2023/01/25 07:55:16;;;;;;;97.03;37.13;;;;;;;1.99;100.00;100205.31;4985898;28;20046;-59
2023/01/25 07:57:41;;;;;;;97.47;37.10;;;;;;;1.99;100.00;100201.91;4969520;28;20648;-60
2023/01/25 08:00:11;;;;;;;98.17;38.43;;;;;;;2.07;100.00;100200.53;4968275;28;20046;-58
2023/01/25 08:02:40;;;;;;;97.57;37.40;;;;;;;2.07;100.00;100201.41;4969800;28;20096;-59
2023/01/25 08:05:06;;;;;;;96.57;37.27;;;;;;;2.16;100.00;100201.78;4969190;28;20038;-60
2023/01/25 08:07:32;;;;;;;96.83;37.33;;;;;;;2.13;100.00;100200.78;4969415;28;20054;-61
2023/01/25 08:09:57;;;;;;;96.93;37.73;;;;;;;2.19;100.00;100196.84;4969391;28;20050;-60
2023/01/25 08:12:25;;;;;;;96.30;37.10;;;;;;;2.21;100.00;100196.88;4970368;28;20233;-60
2023/01/25 08:14:51;;;;;;;96.57;37.60;;;;;;;2.14;100.00;100177.22;4970190;28;20135;-58
2023/01/25 08:17:16;;;;;;;98.27;38.33;;;;;;;2.03;100.00;100168.34;4969076;28;20493;-59
2023/01/25 08:19:42;;;;;;;97.03;37.87;;;;;;;2.19;100.00;100189.25;4969795;28;20047;-60
2023/01/25 08:22:08;;;;;;;97.77;38.70;;;;;;;2.17;100.00;100195.91;4970157;28;20043;-59
2023/01/25 08:24:33;;;;;;;96.60;37.60;;;;;;;2.16;100.00;100196.72;4969083;28;20039;-60
2023/01/25 08:26:59;;;;;;;96.57;38.10;;;;;;;2.17;100.00;100193.38;4970353;28;20038;-59
2023/01/25 08:29:26;;;;;;;96.50;38.10;;;;;;;2.24;100.00;100197.88;4969830;28;20065;-59
2023/01/25 08:31:52;;;;;;;96.07;37.67;;;;;;;2.24;100.00;100190.28;4969747;28;20038;-62
2023/01/25 08:34:19;;;;;;;95.53;37.27;;;;;;;2.34;100.00;100191.50;4971765;28;20061;-60
2023/01/25 08:36:48;;;;;;;96.17;37.77;;;;;;;2.32;100.00;100188.06;4968993;28;20038;-59
2023/01/25 08:39:14;;;;;;;95.53;37.80;;;;;;;2.41;100.00;100185.88;4970256;28;20062;-55
2023/01/25 08:41:41;;;;;;;94.00;37.10;;;;;;;2.51;100.00;100187.06;4976461;28;20046;-56
2023/01/25 08:44:06;;;;;;;93.93;37.17;;;;;;;2.39;100.00;100151.19;4969948;28;20042;-60
2023/01/25 08:46:32;;;;;;;94.37;37.70;;;;;;;2.51;100.00;100167.69;4969976;28;20051;-59
2023/01/25 08:49:00;;;;;;;94.33;37.80;;;;;;;2.44;100.00;100154.75;4969508;28;20102;-59
2023/01/25 08:51:27;;;;;;;94.27;37.63;;;;;;;2.32;100.00;100172.88;4984607;28;20449;-61
2023/01/25 08:53:53;;;;;;;94.53;38.00;;;;;;;2.35;100.00;100169.59;4969239;28;20490;-59
2023/01/25 08:56:20;;;;;;;95.03;38.27;;;;;;;2.40;100.00;100174.03;4965373;28;20057;-58
2023/01/25 08:58:47;;;;;;;94.57;37.33;;;;;;;2.32;100.00;100155.16;4983572;28;20055;-60
2023/01/25 09:01:15;;;;;;;94.90;37.73;;;;;;;2.67;100.00;100175.03;4968311;28;20208;-58
2023/01/25 09:03:44;;;;;;;94.20;37.17;;;;;;;2.81;100.00;100167.97;4967207;28;20718;-59
2023/01/25 09:06:10;;;;;;;93.93;37.73;;;;;;;2.67;100.00;100159.84;4966805;28;20105;-58
2023/01/25 09:08:39;;;;;;;93.20;37.67;;;;;;;2.73;100.00;100146.56;4965814;28;20501;-59
2023/01/25 09:11:07;;;;;;;92.57;36.93;;;;;;;2.88;100.00;100164.00;4967246;28;20175;-59
2023/01/25 09:13:33;;;;;;;92.97;37.50;;;;;;;2.63;100.00;100160.53;4967096;28;20046;-59
2023/01/25 09:16:00;;;;;;;92.93;37.03;;;;;;;2.55;100.00;100120.56;4969312;28;20069;-59
2023/01/25 09:18:27;;;;;;;92.57;36.73;;;;;;;3.05;100.00;100158.72;4967710;28;20085;-59
2023/01/25 09:20:53;;;;;;;92.80;37.60;;;;;;;2.91;100.00;100167.50;4968161;28;20047;-59
2023/01/25 09:23:21;;;;;;;92.97;37.63;;;;;;;2.85;100.00;100164.72;4965561;28;20041;-61
2023/01/25 09:25:47;;;;;;;92.50;37.50;;;;;;;3.16;100.00;100136.28;4979978;28;20046;-61
2023/01/25 09:28:13;;;;;;;92.13;38.00;;;;;;;3.03;100.00;100142.59;4983044;28;20760;-61
2023/01/25 09:30:40;;;;;;;91.47;37.30;;;;;;;3.35;100.00;100150.47;4964974;28;20046;-60
2023/01/25 09:33:09;;;;;;;90.50;36.50;;;;;;;3.02;100.00;100127.34;4981881;28;20285;-60
2023/01/25 09:35:38;;;;;;;90.53;37.27;;;;;;;3.25;100.00;100141.66;4981333;28;20046;-60
2023/01/25 09:38:03;;;;;;;90.43;36.60;;;;;;;3.36;100.00;100142.03;4967207;28;20088;-59
2023/01/25 09:40:38;;;;;;;89.47;36.57;;;;;;;3.01;100.00;100100.31;4966981;28;20762;-59
2023/01/25 09:43:11;;;;;;;90.17;37.20;;;;;;;3.34;100.00;100119.19;4965738;28;20652;-60
2023/01/25 09:45:37;;;;;;;90.13;36.90;;;;;;;3.31;100.00;100111.44;4982897;28;20126;-59
2023/01/25 09:48:20;;;;;;;89.67;36.50;;;;;;;3.57;100.00;100141.06;4969927;28;20612;-60
2023/01/25 09:51:11;;;;;;;89.77;37.13;;;;;;;3.45;100.00;100138.13;4971123;28;20046;-60
2023/01/25 09:53:42;;;;;;;89.80;37.03;;;;;;;3.47;100.00;100130.59;4972138;28;20252;-61
2023/01/25 09:56:29;;;;;;;89.47;36.27;;;;;;;3.22;100.00;100123.84;4971247;28;20054;-59
2023/01/25 09:58:59;;;;;;;89.97;36.57;;;;;;;3.06;100.00;100111.44;4972958;28;20046;-61
2023/01/25 10:01:25;;;;;;;90.57;37.10;;;;;;;3.00;100.00;100108.69;4971087;28;20097;-60
2023/01/25 10:03:59;;;;;;;91.67;37.40;;;;;;;2.96;100.00;100101.81;4974574;28;20058;-60
2023/01/25 10:06:36;;;;;;;91.27;36.77;;;;;;;3.09;100.00;100106.50;4972139;28;20093;-62
2023/01/25 10:09:10;;;;;;;91.17;36.70;;;;;;;2.99;100.00;100100.22;4970236;28;20086;-62
2023/01/25 10:11:37;;;;;;;91.47;37.00;;;;;;;3.16;100.00;100103.34;4970168;28;20053;-59
2023/01/25 10:14:12;;;;;;;90.13;36.05;;;;;;;3.15;100.00;100088.94;4970525;28;20110;-64
2023/01/25 10:16:46;;;;;;;91.27;36.30;;;;;;;3.12;100.00;100068.59;4986325;28;20051;-60
2023/01/25 10:19:21;;;;;;;90.50;36.17;;;;;;;3.35;100.00;100098.09;4972862;28;20548;-60
2023/01/25 10:21:55;;;;;;;90.10;36.40;;;;;;;3.25;100.00;100058.03;4970335;28;20527;-59
2023/01/25 10:24:43;;;;;;;89.23;36.60;;;;;;;3.53;100.00;100075.84;4969572;28;20043;-59
2023/01/25 10:27:21;;;;;;;89.43;36.43;;;;;;;3.38;100.00;100050.03;4969639;28;20050;-59
2023/01/25 10:29:49;;;;;;;88.20;35.80;;;;;;;3.44;100.00;100055.28;4969484;28;20416;-63
2023/01/25 10:32:25;;;;;;;87.80;35.33;;;;;;;3.44;100.00;100051.88;4970274;28;20185;-60
2023/01/25 10:34:54;;;;;;;87.63;35.80;;;;;;;3.39;100.00;100055.97;4972546;28;20081;-61
2023/01/25 10:37:24;;;;;;;88.77;36.53;;;;;;;3.44;100.00;100051.88;4969084;28;20378;-61
2023/01/25 10:40:22;;;;;;;90.57;37.03;;;;;;;3.32;100.00;100019.41;4970791;28;20039;-61
2023/01/25 10:42:59;;;;;;;91.00;37.80;;;;;;;3.45;100.00;100021.53;4964013;28;20047;-60
2023/01/25 10:45:25;;;;;;;90.80;37.67;;;;;;;3.56;100.00;100044.69;4969099;28;20050;-61
2023/01/25 10:47:56;;;;;;;90.77;37.57;;;;;;;3.48;100.00;100039.34;4987243;28;20059;-61
2023/01/25 10:50:37;;;;;;;90.67;37.87;;;;;;;3.51;100.00;100041.16;4970298;28;20249;-60
2023/01/25 10:53:03;;;;;;;90.00;37.47;;;;;;;3.56;100.00;100037.09;4970493;28;20097;-62
2023/01/25 10:55:29;;;;;;;89.43;37.47;;;;;;;3.45;100.00;100028.25;4970958;28;20062;-60
2023/01/25 10:57:59;;;;;;;89.63;36.87;;;;;;;3.58;100.00;100022.75;4970895;28;20043;-61
2023/01/25 11:00:25;;;;;;;89.53;37.10;;;;;;;3.53;100.00;100035.28;4969447;28;20038;-60
2023/01/25 11:02:52;;;;;;;89.93;36.93;;;;;;;3.51;100.00;100036.06;4970790;28;20046;-62
2023/01/25 11:05:18;;;;;;;89.87;37.33;;;;;;;3.44;100.00;100032.47;4972016;28;20490;-61
2023/01/25 11:07:47;;;;;;;89.77;37.03;;;;;;;3.30;100.00;100020.19;4971582;28;20042;-61
2023/01/25 11:10:30;;;;;;;89.43;36.60;;;;;;;3.39;100.00;100018.81;4970861;28;20086;-60
2023/01/25 11:13:14;;;;;;;90.10;37.43;;;;;;;3.50;100.00;100016.59;4971691;28;20066;-60
2023/01/25 11:15:46;;;;;;;88.63;36.43;;;;;;;3.42;100.00;100015.50;4970685;28;20081;-60
2023/01/25 11:18:25;;;;;;;88.30;36.43;;;;;;;3.29;100.00;100005.78;4970664;28;20097;-61